Time;durP1;ratioP1;P1;durP2;ratioP2;P2;SDS_P1;SDS_P2;PMS_P1;PMS_P2;Temp;Humidity;BMP_temperature;BMP_pressure;BME280_temperature;BME280_humidity;BME280_pressure;Samples;Min_cycle;Max_cycle;Signal;HPM_P1;HPM_P2
2024/04/01 00:01:59;;;;;;;12.88;6.38;;;;;;;;;;5047198;28;20033;-52
2024/04/01 00:04:24;;;;;;;15.73;6.88;;;;;;;;;;5046896;28;20032;-49
2024/04/01 00:06:50;;;;;;;15.57;5.75;;;;;;;;;;5047215;28;20119;-48
2024/04/01 00:09:16;;;;;;;11.63;6.30;;;;;;;;;;5048832;28;20036;-52
2024/04/01 00:11:41;;;;;;;9.35;5.85;;;;;;;;;;5047202;28;20056;-50
2024/04/01 00:14:07;;;;;;;10.95;6.22;;;;;;;;;;5048845;28;20037;-50
2024/04/01 00:16:32;;;;;;;16.45;6.35;;;;;;;;;;5047258;28;20044;-49
2024/04/01 00:18:58;;;;;;;13.80;6.00;;;;;;;;;;5046995;28;20071;-49
2024/04/01 00:21:23;;;;;;;14.27;5.97;;;;;;;;;;5047104;28;20120;-49
2024/04/01 00:23:53;;;;;;;11.07;6.50;;;;;;;;;;5046904;28;20032;-48
2024/04/01 00:26:18;;;;;;;12.93;6.80;;;;;;;;;;5047187;28;20064;-48
2024/04/01 00:28:44;;;;;;;12.25;5.93;;;;;;;;;;5063961;28;20037;-48
2024/04/01 00:31:10;;;;;;;14.63;6.43;;;;;;;;;;5046825;28;20827;-48
2024/04/01 00:33:35;;;;;;;16.67;6.43;;;;;;;;;;5048601;28;20404;-50
2024/04/01 00:36:01;;;;;;;12.27;6.68;;;;;;;;;;5063688;28;20043;-50
2024/04/01 00:38:27;;;;;;;13.40;6.50;;;;;;;;;;5047186;28;20148;-47
2024/04/01 00:40:53;;;;;;;10.25;6.35;;;;;;;;;;5063844;28;20529;-46
2024/04/01 00:43:18;;;;;;;14.13;6.85;;;;;;;;;;5047741;28;20119;-47
2024/04/01 00:45:48;;;;;;;11.20;6.55;;;;;;;;;;5066624;28;20127;-47
2024/04/01 00:48:15;;;;;;;12.65;6.30;;;;;;;;;;5064231;28;20029;-49
2024/04/01 00:50:42;;;;;;;12.25;6.25;;;;;;;;;;5038897;28;20024;-49
2024/04/01 00:53:10;;;;;;;12.07;6.45;;;;;;;;;;5068346;28;20412;-49
2024/04/01 00:55:37;;;;;;;13.57;6.85;;;;;;;;;;5066487;28;20052;-49
2024/04/01 00:58:02;;;;;;;16.35;6.60;;;;;;;;;;5049958;28;20040;-49
2024/04/01 01:00:28;;;;;;;12.68;7.15;;;;;;;;;;5062490;28;20044;-48
2024/04/01 01:02:55;;;;;;;11.05;6.40;;;;;;;;;;5030358;28;20557;-49
2024/04/01 01:05:20;;;;;;;12.32;6.30;;;;;;;;;;5063718;28;20068;-49
2024/04/01 01:07:46;;;;;;;15.98;7.53;;;;;;;;;;5046698;28;20420;-47
2024/04/01 01:10:12;;;;;;;15.20;6.75;;;;;;;;;;5047906;28;20036;-47
2024/04/01 01:12:37;;;;;;;18.08;7.32;;;;;;;;;;5046165;28;20039;-45
2024/04/01 01:15:04;;;;;;;15.73;7.30;;;;;;;;;;5046526;28;20033;-47
2024/04/01 01:17:31;;;;;;;14.02;6.85;;;;;;;;;;5029629;28;20029;-52
2024/04/01 01:19:56;;;;;;;13.35;6.22;;;;;;;;;;5046300;28;20063;-51
2024/04/01 01:22:37;;;;;;;11.40;6.72;;;;;;;;;;5046291;28;20551;-48
2024/04/01 01:25:07;;;;;;;15.23;6.38;;;;;;;;;;5046128;28;20052;-51
2024/04/01 01:27:36;;;;;;;13.40;6.53;;;;;;;;;;5062563;28;20033;-51
2024/04/01 01:30:03;;;;;;;15.50;7.28;;;;;;;;;;5062357;28;20060;-54
2024/04/01 01:32:31;;;;;;;13.07;6.95;;;;;;;;;;5074041;28;20033;-47
2024/04/01 01:34:57;;;;;;;15.30;7.50;;;;;;;;;;5048276;28;20387;-51
2024/04/01 01:37:23;;;;;;;14.20;7.25;;;;;;;;;;5047037;28;20037;-49
2024/04/01 01:39:49;;;;;;;14.80;7.32;;;;;;;;;;5063926;28;20546;-53
2024/04/01 01:42:15;;;;;;;13.80;7.05;;;;;;;;;;5061875;28;20083;-48
2024/04/01 01:44:40;;;;;;;16.75;7.00;;;;;;;;;;5066809;28;20117;-49
2024/04/01 01:47:06;;;;;;;14.27;6.78;;;;;;;;;;5065299;28;20359;-51
2024/04/01 01:49:32;;;;;;;16.10;6.68;;;;;;;;;;5052632;28;20041;-47
2024/04/01 01:51:57;;;;;;;19.13;7.00;;;;;;;;;;5045530;28;20025;-47
2024/04/01 01:54:23;;;;;;;16.55;7.85;;;;;;;;;;5051111;28;20082;-48
2024/04/01 01:56:49;;;;;;;15.80;8.68;;;;;;;;;;5065820;28;20036;-50
2024/04/01 01:59:14;;;;;;;11.35;6.93;;;;;;;;;;5065649;28;20037;-50
2024/04/01 02:01:40;;;;;;;24.77;8.02;;;;;;;;;;5066611;28;20052;-48
2024/04/01 02:04:05;;;;;;;14.15;6.90;;;;;;;;;;5047927;28;20113;-50
2024/04/01 02:06:31;;;;;;;14.68;7.05;;;;;;;;;;5045440;28;20033;-51
2024/04/01 02:08:57;;;;;;;13.65;7.93;;;;;;;;;;5045484;28;20460;-45
2024/04/01 02:11:23;;;;;;;18.92;8.18;;;;;;;;;;5045328;28;20467;-46
2024/04/01 02:13:49;;;;;;;15.40;7.18;;;;;;;;;;5047020;28;20037;-46
2024/04/01 02:16:15;;;;;;;15.55;7.10;;;;;;;;;;5078244;28;20093;-49
2024/04/01 02:18:41;;;;;;;16.13;6.90;;;;;;;;;;5065439;28;20040;-47
2024/04/01 02:21:07;;;;;;;11.77;7.30;;;;;;;;;;5065183;28;20037;-48
2024/04/01 02:23:33;;;;;;;12.63;7.00;;;;;;;;;;5058890;28;20495;-47
2024/04/01 02:26:03;;;;;;;14.18;7.07;;;;;;;;;;5061612;28;20041;-51
2024/04/01 02:28:30;;;;;;;12.43;7.30;;;;;;;;;;5062647;28;20044;-49
2024/04/01 02:30:56;;;;;;;11.38;6.68;;;;;;;;;;5045139;28;20135;-46
2024/04/01 02:33:21;;;;;;;16.70;6.78;;;;;;;;;;5044607;28;20152;-48
2024/04/01 02:35:47;;;;;;;15.55;6.82;;;;;;;;;;5046323;28;20041;-47
2024/04/01 02:38:12;;;;;;;18.33;7.57;;;;;;;;;;5046478;28;20059;-51
2024/04/01 02:40:38;;;;;;;17.20;7.18;;;;;;;;;;5028778;28;20412;-50
2024/04/01 02:43:04;;;;;;;15.30;7.38;;;;;;;;;;5058071;28;20045;-52
2024/04/01 02:45:30;;;;;;;20.42;8.90;;;;;;;;;;5047136;28;20036;-48
2024/04/01 02:47:56;;;;;;;21.17;8.45;;;;;;;;;;5044903;28;20507;-47
2024/04/01 02:50:22;;;;;;;22.45;7.93;;;;;;;;;;5064997;28;20157;-54
2024/04/01 02:52:50;;;;;;;15.75;6.90;;;;;;;;;;5064967;28;20039;-52
2024/04/01 02:55:19;;;;;;;18.58;7.88;;;;;;;;;;5044482;28;20068;-50
2024/04/01 02:57:44;;;;;;;14.07;7.38;;;;;;;;;;5044842;28;20043;-48
2024/04/01 03:00:16;;;;;;;19.75;7.75;;;;;;;;;;5044972;28;20033;-50
2024/04/01 03:02:48;;;;;;;13.07;7.43;;;;;;;;;;5046200;28;20044;-49
2024/04/01 03:05:15;;;;;;;17.73;7.78;;;;;;;;;;5044259;28;20162;-50
2024/04/01 03:07:40;;;;;;;14.85;7.75;;;;;;;;;;5063820;28;20040;-51
2024/04/01 03:10:07;;;;;;;16.80;6.82;;;;;;;;;;5067855;28;20037;-49
2024/04/01 03:12:33;;;;;;;14.25;7.35;;;;;;;;;;5067356;28;20041;-51
2024/04/01 03:14:58;;;;;;;14.95;7.38;;;;;;;;;;5069551;28;20515;-47
2024/04/01 03:17:24;;;;;;;14.32;6.82;;;;;;;;;;5052303;28;20389;-53
2024/04/01 03:19:50;;;;;;;15.32;6.70;;;;;;;;;;5068103;28;20033;-48
2024/04/01 03:22:16;;;;;;;21.60;7.32;;;;;;;;;;5051008;28;20047;-49
2024/04/01 03:24:42;;;;;;;14.05;7.32;;;;;;;;;;5052288;28;20531;-48
2024/04/01 03:27:07;;;;;;;13.82;6.97;;;;;;;;;;5052131;28;20037;-49
2024/04/01 03:29:33;;;;;;;13.23;7.38;;;;;;;;;;5067519;28;20036;-51
2024/04/01 03:31:59;;;;;;;20.83;7.18;;;;;;;;;;5050683;28;20495;-50
2024/04/01 03:34:24;;;;;;;15.80;7.10;;;;;;;;;;5050693;28;20040;-51
2024/04/01 03:36:53;;;;;;;12.70;6.85;;;;;;;;;;5067290;28;20429;-53
2024/04/01 03:39:19;;;;;;;15.38;7.10;;;;;;;;;;5050538;28;20056;-51
2024/04/01 03:41:44;;;;;;;14.20;7.63;;;;;;;;;;5052347;28;20747;-48
2024/04/01 03:44:10;;;;;;;12.65;6.72;;;;;;;;;;5070612;28;20028;-49
2024/04/01 03:46:35;;;;;;;17.85;7.10;;;;;;;;;;5053536;28;20040;-52
2024/04/01 03:49:01;;;;;;;12.95;6.60;;;;;;;;;;5062258;28;20699;-53
2024/04/01 03:51:27;;;;;;;16.90;6.40;;;;;;;;;;5033816;28;20033;-52
2024/04/01 03:53:53;;;;;;;16.00;6.75;;;;;;;;;;5052183;28;20036;-55
2024/04/01 03:56:18;;;;;;;15.73;7.10;;;;;;;;;;5050438;28;20486;-48
2024/04/01 03:58:45;;;;;;;13.68;6.38;;;;;;;;;;5067245;28;20037;-52
2024/04/01 04:01:11;;;;;;;18.30;6.47;;;;;;;;;;5051727;28;20032;-51
2024/04/01 04:03:37;;;;;;;13.23;6.80;;;;;;;;;;5070316;28;20028;-52
2024/04/01 04:06:02;;;;;;;16.25;7.13;;;;;;;;;;5070845;28;20052;-53
2024/04/01 04:08:28;;;;;;;16.35;7.05;;;;;;;;;;5052085;28;20412;-51
2024/04/01 04:10:54;;;;;;;13.77;6.68;;;;;;;;;;5066212;28;20032;-53
2024/04/01 04:13:20;;;;;;;23.05;7.90;;;;;;;;;;5089588;28;20082;-53
2024/04/01 04:15:46;;;;;;;20.50;6.40;;;;;;;;;;5054087;28;20071;-52
2024/04/01 04:18:12;;;;;;;14.70;7.22;;;;;;;;;;5057704;28;20060;-47
2024/04/01 04:20:37;;;;;;;17.08;7.20;;;;;;;;;;5046531;28;20082;-49
2024/04/01 04:23:03;;;;;;;19.60;7.72;;;;;;;;;;5030664;28;20040;-52
2024/04/01 04:25:30;;;;;;;20.08;6.53;;;;;;;;;;5048503;28;20071;-50
2024/04/01 04:27:55;;;;;;;24.63;7.43;;;;;;;;;;5047476;28;20029;-55
2024/04/01 04:30:21;;;;;;;20.05;8.02;;;;;;;;;;5048006;28;20033;-51
2024/04/01 04:32:47;;;;;;;25.80;6.88;;;;;;;;;;5032159;28;20055;-48
2024/04/01 04:35:13;;;;;;;22.95;7.75;;;;;;;;;;5050457;28;20434;-48
2024/04/01 04:37:39;;;;;;;16.25;7.15;;;;;;;;;;5063860;28;20434;-47
2024/04/01 04:40:05;;;;;;;18.98;7.15;;;;;;;;;;5030387;28;20037;-47
2024/04/01 04:42:31;;;;;;;15.32;7.03;;;;;;;;;;5041283;28;20430;-52
2024/04/01 04:44:57;;;;;;;18.27;6.72;;;;;;;;;;5066756;28;20033;-50
2024/04/01 04:47:23;;;;;;;18.48;7.03;;;;;;;;;;5070117;28;20579;-51
2024/04/01 04:49:49;;;;;;;22.65;7.05;;;;;;;;;;5077041;28;20036;-50
2024/04/01 04:52:14;;;;;;;17.60;6.55;;;;;;;;;;5075818;28;20036;-51
2024/04/01 04:54:40;;;;;;;14.73;6.30;;;;;;;;;;5078585;28;20082;-52
2024/04/01 04:57:06;;;;;;;18.67;5.82;;;;;;;;;;5074186;28;20068;-52
2024/04/01 04:59:33;;;;;;;18.98;7.13;;;;;;;;;;5055504;28;20048;-55
2024/04/01 05:02:06;;;;;;;15.68;6.97;;;;;;;;;;5046589;28;20029;-49
2024/04/01 05:04:33;;;;;;;17.42;6.72;;;;;;;;;;5060747;28;20054;-50
2024/04/01 05:06:59;;;;;;;18.08;6.30;;;;;;;;;;5069863;28;20028;-51
2024/04/01 05:09:24;;;;;;;18.75;6.18;;;;;;;;;;5072024;28;20044;-51
2024/04/01 05:11:50;;;;;;;14.43;6.40;;;;;;;;;;5073163;28;20127;-50
2024/04/01 05:14:15;;;;;;;21.15;6.35;;;;;;;;;;5067684;28;20028;-53
2024/04/01 05:16:41;;;;;;;13.55;6.40;;;;;;;;;;5049185;28;20024;-52
2024/04/01 05:19:07;;;;;;;13.77;6.32;;;;;;;;;;5049163;28;20028;-51
2024/04/01 05:21:33;;;;;;;22.20;6.90;;;;;;;;;;5061309;28;20033;-53
2024/04/01 05:23:59;;;;;;;21.80;6.38;;;;;;;;;;5064357;28;20032;-55
2024/04/01 05:26:25;;;;;;;17.08;5.95;;;;;;;;;;5047418;28;20127;-51
2024/04/01 05:28:50;;;;;;;18.55;7.15;;;;;;;;;;5048042;28;20032;-52
2024/04/01 05:31:16;;;;;;;18.55;6.15;;;;;;;;;;5047718;28;20039;-53
2024/04/01 05:33:42;;;;;;;19.65;6.10;;;;;;;;;;5046069;28;20076;-50
2024/04/01 05:36:07;;;;;;;20.98;6.75;;;;;;;;;;5047017;28;20037;-56
2024/04/01 05:38:33;;;;;;;17.77;5.93;;;;;;;;;;5045854;28;20090;-54
2024/04/01 05:40:59;;;;;;;16.88;6.90;;;;;;;;;;5065224;28;20500;-50
2024/04/01 05:43:25;;;;;;;18.00;5.47;;;;;;;;;;5063178;28;20041;-51
2024/04/01 05:45:51;;;;;;;19.65;5.70;;;;;;;;;;5055199;28;20043;-52
2024/04/01 05:48:17;;;;;;;17.75;5.55;;;;;;;;;;5051211;28;20064;-52
2024/04/01 05:50:50;;;;;;;20.80;6.35;;;;;;;;;;5060042;28;20485;-50
2024/04/01 05:53:16;;;;;;;17.63;5.47;;;;;;;;;;5048028;28;20064;-55
2024/04/01 05:55:42;;;;;;;17.45;6.50;;;;;;;;;;5071700;28;20071;-50
2024/04/01 05:58:08;;;;;;;20.20;6.38;;;;;;;;;;5064576;28;20040;-55
2024/04/01 06:00:34;;;;;;;17.40;6.07;;;;;;;;;;5065116;28;20032;-49
2024/04/01 06:03:00;;;;;;;20.30;5.82;;;;;;;;;;5066392;28;20047;-50
2024/04/01 06:05:26;;;;;;;21.23;8.13;;;;;;;;;;5065563;28;20032;-55
2024/04/01 06:07:52;;;;;;;13.82;6.97;;;;;;;;;;5064666;28;20525;-52
2024/04/01 06:10:18;;;;;;;30.08;6.50;;;;;;;;;;5058598;28;20033;-51
2024/04/01 06:12:43;;;;;;;20.08;6.35;;;;;;;;;;5073350;28;20028;-53
2024/04/01 06:15:09;;;;;;;18.25;5.85;;;;;;;;;;5048049;28;20081;-52
2024/04/01 06:17:35;;;;;;;22.08;7.00;;;;;;;;;;5048724;28;20059;-51
2024/04/01 06:20:00;;;;;;;21.33;6.38;;;;;;;;;;5050675;28;20040;-52
2024/04/01 06:22:27;;;;;;;19.50;6.13;;;;;;;;;;5050550;28;20040;-53
2024/04/01 06:24:53;;;;;;;19.80;6.53;;;;;;;;;;5066428;28;20412;-51
2024/04/01 06:27:19;;;;;;;21.38;6.53;;;;;;;;;;5064739;28;20416;-49
2024/04/01 06:29:44;;;;;;;25.10;6.50;;;;;;;;;;5064125;28;20036;-49
2024/04/01 06:32:10;;;;;;;14.65;5.40;;;;;;;;;;5053526;28;20040;-47
2024/04/01 06:34:36;;;;;;;27.38;6.75;;;;;;;;;;5064247;28;20455;-52
2024/04/01 06:37:02;;;;;;;21.95;6.43;;;;;;;;;;5063524;28;20036;-49
2024/04/01 06:39:27;;;;;;;22.42;6.32;;;;;;;;;;5065764;28;20044;-48
2024/04/01 06:41:54;;;;;;;22.60;7.15;;;;;;;;;;5062898;28;20040;-49
2024/04/01 06:44:20;;;;;;;28.92;6.50;;;;;;;;;;5064238;28;20032;-48
2024/04/01 06:46:48;;;;;;;16.85;6.10;;;;;;;;;;5071602;28;20077;-51
2024/04/01 06:49:14;;;;;;;20.70;6.65;;;;;;;;;;5055601;28;20094;-52
2024/04/01 06:51:40;;;;;;;19.08;5.13;;;;;;;;;;5076262;28;20872;-52
2024/04/01 06:54:05;;;;;;;18.55;5.50;;;;;;;;;;5084564;28;20123;-49
2024/04/01 06:56:31;;;;;;;22.92;5.43;;;;;;;;;;5055860;28;20061;-49
2024/04/01 06:58:57;;;;;;;14.85;5.68;;;;;;;;;;5036967;28;20044;-50
2024/04/01 07:01:22;;;;;;;20.58;5.63;;;;;;;;;;5044331;28;20033;-52
2024/04/01 07:03:48;;;;;;;10.82;4.57;;;;;;;;;;5068136;28;20036;-48
2024/04/01 07:06:14;;;;;;;30.63;6.25;;;;;;;;;;5074624;28;20044;-51
2024/04/01 07:08:40;;;;;;;13.68;5.00;;;;;;;;;;5070238;28;20116;-52
2024/04/01 07:11:05;;;;;;;12.68;5.05;;;;;;;;;;5074307;28;20777;-50
2024/04/01 07:13:31;;;;;;;18.50;5.20;;;;;;;;;;5083305;28;20729;-49
2024/04/01 07:15:57;;;;;;;20.85;5.13;;;;;;;;;;5086077;28;20140;-53
2024/04/01 07:18:24;;;;;;;21.90;5.57;;;;;;;;;;5080852;28;20934;-51
2024/04/01 07:20:50;;;;;;;22.35;5.97;;;;;;;;;;5027742;28;20033;-48
2024/04/01 07:23:15;;;;;;;22.70;5.20;;;;;;;;;;5060925;28;20033;-52
2024/04/01 07:25:41;;;;;;;14.30;5.13;;;;;;;;;;5061013;28;20072;-52
2024/04/01 07:28:07;;;;;;;20.38;5.18;;;;;;;;;;5066105;28;20066;-52
2024/04/01 07:30:32;;;;;;;16.73;4.82;;;;;;;;;;5015312;28;20037;-53
2024/04/01 07:32:58;;;;;;;16.35;5.20;;;;;;;;;;5061571;28;20036;-48
2024/04/01 07:35:24;;;;;;;21.75;5.32;;;;;;;;;;5071895;28;20139;-51
2024/04/01 07:37:50;;;;;;;17.02;5.05;;;;;;;;;;5073700;28;20043;-54
2024/04/01 07:40:16;;;;;;;19.63;4.82;;;;;;;;;;5071977;28;20086;-54
2024/04/01 07:42:43;;;;;;;16.60;4.60;;;;;;;;;;5072398;28;20427;-52
2024/04/01 07:45:09;;;;;;;18.48;4.95;;;;;;;;;;5075718;28;20450;-50
2024/04/01 07:47:35;;;;;;;21.20;5.40;;;;;;;;;;5070111;28;20033;-51
2024/04/01 07:50:01;;;;;;;21.30;4.63;;;;;;;;;;5070516;28;20033;-51
2024/04/01 07:52:28;;;;;;;14.65;4.07;;;;;;;;;;5075126;28;20062;-49
2024/04/01 07:54:53;;;;;;;21.05;4.57;;;;;;;;;;5074345;28;20044;-49
2024/04/01 07:57:19;;;;;;;10.93;4.45;;;;;;;;;;5078580;28;20040;-52
2024/04/01 07:59:45;;;;;;;19.63;4.68;;;;;;;;;;5061744;28;20401;-52
2024/04/01 08:02:11;;;;;;;18.92;4.55;;;;;;;;;;5040845;28;20040;-53
2024/04/01 08:04:37;;;;;;;18.73;4.63;;;;;;;;;;5058139;28;20386;-49
2024/04/01 08:07:03;;;;;;;14.25;4.15;;;;;;;;;;5068809;28;20127;-53
2024/04/01 08:09:28;;;;;;;14.38;4.28;;;;;;;;;;5068552;28;20119;-50
2024/04/01 08:11:54;;;;;;;18.33;4.90;;;;;;;;;;5018920;28;20060;-49
2024/04/01 08:14:20;;;;;;;13.93;4.18;;;;;;;;;;5047099;28;20519;-52
2024/04/01 08:16:46;;;;;;;13.02;3.95;;;;;;;;;;5063652;28;20035;-56
2024/04/01 08:19:14;;;;;;;17.63;4.07;;;;;;;;;;5048281;28;20457;-48
2024/04/01 08:21:39;;;;;;;17.60;4.50;;;;;;;;;;5048428;28;20103;-51
2024/04/01 08:24:05;;;;;;;12.68;4.07;;;;;;;;;;5077542;28;20048;-53
2024/04/01 08:26:31;;;;;;;17.10;4.72;;;;;;;;;;5068353;28;20236;-47
2024/04/01 08:28:57;;;;;;;15.02;4.72;;;;;;;;;;5050238;28;20308;-48
2024/04/01 08:31:22;;;;;;;18.13;4.22;;;;;;;;;;5062822;28;20910;-52
2024/04/01 08:33:48;;;;;;;17.30;4.43;;;;;;;;;;5048197;28;20115;-50
2024/04/01 08:36:14;;;;;;;21.90;4.63;;;;;;;;;;5046558;28;20127;-51
2024/04/01 08:38:40;;;;;;;14.90;4.32;;;;;;;;;;5046442;28;20182;-50
2024/04/01 08:41:27;;;;;;;10.73;3.83;;;;;;;;;;5063515;28;20091;-50
2024/04/01 08:43:59;;;;;;;13.13;4.23;;;;;;;;;;5066893;28;20513;-46
2024/04/01 08:46:25;;;;;;;21.02;4.13;;;;;;;;;;5066661;28;20282;-52
2024/04/01 08:48:54;;;;;;;11.75;3.53;;;;;;;;;;5059737;28;20051;-53
2024/04/01 08:51:20;;;;;;;14.75;3.95;;;;;;;;;;5048049;28;20123;-56
2024/04/01 08:53:52;;;;;;;15.75;4.22;;;;;;;;;;5046794;28;20135;-51
2024/04/01 08:56:19;;;;;;;11.63;4.22;;;;;;;;;;5063688;28;20072;-48
2024/04/01 08:58:45;;;;;;;11.45;3.67;;;;;;;;;;5063590;28;20113;-49
2024/04/01 09:01:11;;;;;;;11.45;4.15;;;;;;;;;;5046928;28;20115;-53
2024/04/01 09:03:37;;;;;;;12.55;3.47;;;;;;;;;;5040959;28;20036;-53
2024/04/01 09:06:04;;;;;;;16.52;4.15;;;;;;;;;;5049551;28;20474;-51
2024/04/01 09:08:30;;;;;;;12.82;3.70;;;;;;;;;;5068055;28;20508;-54
2024/04/01 09:10:56;;;;;;;14.02;3.65;;;;;;;;;;5049774;28;20041;-51
2024/04/01 09:13:23;;;;;;;11.52;3.58;;;;;;;;;;5046013;28;20128;-54
2024/04/01 09:15:49;;;;;;;8.07;3.47;;;;;;;;;;5045922;28;20040;-50
2024/04/01 09:18:14;;;;;;;12.57;3.60;;;;;;;;;;5062068;28;20505;-53
2024/04/01 09:20:41;;;;;;;11.48;3.65;;;;;;;;;;5063044;28;20028;-49
2024/04/01 09:23:07;;;;;;;9.73;3.50;;;;;;;;;;5062891;28;20029;-49
2024/04/01 09:25:33;;;;;;;9.68;3.17;;;;;;;;;;5047796;28;20052;-51
2024/04/01 09:27:59;;;;;;;11.95;3.58;;;;;;;;;;5045841;28;20037;-51
2024/04/01 09:30:25;;;;;;;19.75;3.72;;;;;;;;;;5062582;28;20067;-48
2024/04/01 09:32:51;;;;;;;11.40;3.95;;;;;;;;;;5045687;28;20039;-53
2024/04/01 09:35:16;;;;;;;9.68;3.65;;;;;;;;;;5045915;28;20112;-50
2024/04/01 09:37:42;;;;;;;16.08;3.30;;;;;;;;;;5062759;28;20063;-50
2024/04/01 09:40:09;;;;;;;9.57;2.80;;;;;;;;;;5046162;28;20122;-50
2024/04/01 09:42:34;;;;;;;11.68;3.35;;;;;;;;;;5054287;28;20270;-48
2024/04/01 09:45:00;;;;;;;15.40;3.55;;;;;;;;;;5065766;28;20521;-48
2024/04/01 09:47:26;;;;;;;12.15;3.25;;;;;;;;;;5055901;28;20052;-49
2024/04/01 09:49:52;;;;;;;13.82;3.65;;;;;;;;;;5047041;28;20037;-52
2024/04/01 09:52:18;;;;;;;16.23;3.50;;;;;;;;;;5045499;28;20041;-51
2024/04/01 09:54:49;;;;;;;15.20;3.58;;;;;;;;;;5045239;28;20071;-50
2024/04/01 09:57:45;;;;;;;16.25;3.08;;;;;;;;;;5029013;28;20367;-49
2024/04/01 10:00:14;;;;;;;16.70;3.58;;;;;;;;;;5032193;28;20041;-51
2024/04/01 10:02:50;;;;;;;16.40;3.95;;;;;;;;;;5047061;28;20036;-50
2024/04/01 10:05:21;;;;;;;11.55;3.38;;;;;;;;;;5046057;28;20056;-50
2024/04/01 10:08:06;;;;;;;12.40;3.45;;;;;;;;;;5045203;28;20041;-48
2024/04/01 10:10:35;;;;;;;11.95;3.72;;;;;;;;;;5061162;28;20044;-53
2024/04/01 10:13:21;;;;;;;10.57;3.60;;;;;;;;;;5069186;28;20144;-54
2024/04/01 10:15:56;;;;;;;11.70;2.75;;;;;;;;;;5038833;28;20032;-54
2024/04/01 10:18:33;;;;;;;9.32;2.90;;;;;;;;;;5065762;28;20568;-52
2024/04/01 10:20:59;;;;;;;9.63;3.00;;;;;;;;;;5063191;28;20041;-50
2024/04/01 10:23:43;;;;;;;10.43;3.65;;;;;;;;;;5046381;28;20565;-49
2024/04/01 10:26:09;;;;;;;18.73;3.60;;;;;;;;;;5044408;28;20071;-53
2024/04/01 10:28:35;;;;;;;14.38;3.95;;;;;;;;;;5028030;28;20100;-50
2024/04/01 10:31:00;;;;;;;9.32;3.47;;;;;;;;;;5046233;28;20127;-52
2024/04/01 10:33:32;;;;;;;11.98;3.67;;;;;;;;;;5046270;28;20048;-49
2024/04/01 10:36:21;;;;;;;15.00;3.63;;;;;;;;;;5077348;28;20028;-51
2024/04/01 10:38:52;;;;;;;21.20;4.13;;;;;;;;;;5085791;28;20031;-50
2024/04/01 10:41:33;;;;;;;15.05;3.50;;;;;;;;;;5073423;28;20579;-50
2024/04/01 10:44:02;;;;;;;17.60;4.20;;;;;;;;;;5046326;28;20036;-52
2024/04/01 10:46:37;;;;;;;15.77;3.35;;;;;;;;;;5046608;28;20056;-50
2024/04/01 10:49:22;;;;;;;10.23;3.55;;;;;;;;;;5071618;28;20601;-51
2024/04/01 10:51:50;;;;;;;14.48;3.67;;;;;;;;;;5048071;28;20028;-55
2024/04/01 10:54:17;;;;;;;13.02;3.90;;;;;;;;;;5064738;28;20524;-49
2024/04/01 10:56:46;;;;;;;12.82;3.38;;;;;;;;;;5049861;28;20032;-50
2024/04/01 10:59:11;;;;;;;8.15;2.80;;;;;;;;;;5046280;28;20045;-51
2024/04/01 11:01:39;;;;;;;10.40;3.60;;;;;;;;;;5044678;28;20408;-53
2024/04/01 11:04:05;;;;;;;;;;;;;;;;;;5046335;28;20064;-53
2024/04/01 11:06:37;;;;;;;9.63;3.33;;;;;;;;;;5045972;28;20388;-54
2024/04/01 11:09:03;;;;;;;12.52;3.45;;;;;;;;;;5045893;28;20045;-52
2024/04/01 11:11:53;;;;;;;13.85;3.67;;;;;;;;;;5044012;28;20067;-53
2024/04/01 11:14:19;;;;;;;17.38;3.47;;;;;;;;;;5045348;28;20040;-55
2024/04/01 11:16:48;;;;;;;12.15;3.92;;;;;;;;;;5045800;28;20461;-53
2024/04/01 11:19:13;;;;;;;16.40;3.40;;;;;;;;;;5045692;28;20036;-48
2024/04/01 11:21:50;;;;;;;16.05;4.53;;;;;;;;;;5027497;28;20037;-47
2024/04/01 11:24:30;;;;;;;11.10;3.33;;;;;;;;;;5045829;28;20028;-50
2024/04/01 11:26:59;;;;;;;11.90;3.25;;;;;;;;;;5045612;28;20551;-50
2024/04/01 11:29:28;;;;;;;10.82;3.75;;;;;;;;;;5046370;28;20061;-47
2024/04/01 11:32:00;;;;;;;13.73;3.30;;;;;;;;;;5049218;28;20618;-51
2024/04/01 11:34:45;;;;;;;12.50;3.00;;;;;;;;;;5049088;28;20037;-51
2024/04/01 11:37:13;;;;;;;10.55;3.05;;;;;;;;;;5047476;28;20039;-49
2024/04/01 11:39:41;;;;;;;17.35;3.13;;;;;;;;;;5047674;28;20033;-52
2024/04/01 11:42:07;;;;;;;10.88;2.65;;;;;;;;;;5068409;28;20043;-57
2024/04/01 11:44:34;;;;;;;8.60;3.72;;;;;;;;;;5068816;28;20071;-48
2024/04/01 11:47:00;;;;;;;14.20;2.97;;;;;;;;;;5048229;28;20029;-48
2024/04/01 11:49:26;;;;;;;10.80;2.90;;;;;;;;;;5061778;28;20032;-47
2024/04/01 11:51:52;;;;;;;9.10;3.28;;;;;;;;;;5068888;28;20033;-49
2024/04/01 11:54:27;;;;;;;15.57;3.28;;;;;;;;;;5069164;28;20051;-51
2024/04/01 11:56:53;;;;;;;15.93;3.38;;;;;;;;;;5067698;28;20286;-52
2024/04/01 11:59:29;;;;;;;9.52;2.67;;;;;;;;;;5050176;28;20033;-47
2024/04/01 12:01:55;;;;;;;13.85;3.10;;;;;;;;;;5047547;28;20029;-49
2024/04/01 12:04:22;;;;;;;8.52;3.00;;;;;;;;;;5047438;28;20048;-50
2024/04/01 12:06:48;;;;;;;13.43;3.63;;;;;;;;;;5047585;28;20095;-47
2024/04/01 12:09:14;;;;;;;12.98;2.72;;;;;;;;;;5048837;28;20037;-50
2024/04/01 12:11:43;;;;;;;11.10;2.70;;;;;;;;;;5048654;28;20041;-45
2024/04/01 12:14:09;;;;;;;13.07;2.65;;;;;;;;;;5048741;28;20105;-50
2024/04/01 12:16:35;;;;;;;7.90;2.25;;;;;;;;;;5046857;28;20033;-54
2024/04/01 12:19:01;;;;;;;13.70;2.88;;;;;;;;;;5048631;28;20043;-48
2024/04/01 12:21:28;;;;;;;13.45;3.22;;;;;;;;;;5046916;28;20033;-46
2024/04/01 12:23:54;;;;;;;10.35;3.00;;;;;;;;;;5044636;23;20103;-51
2024/04/01 12:26:20;;;;;;;9.93;1.88;;;;;;;;;;5026634;28;20033;-52
2024/04/01 12:28:46;;;;;;;5.32;1.67;;;;;;;;;;5042488;28;20030;-49
2024/04/01 12:31:16;;;;;;;7.07;2.00;;;;;;;;;;5026656;28;20038;-50
2024/04/01 12:33:42;;;;;;;14.27;3.67;;;;;;;;;;5027790;28;20034;-51
2024/04/01 12:36:08;;;;;;;7.15;2.45;;;;;;;;;;5018840;28;20113;-48
2024/04/01 12:38:41;;;;;;;13.70;2.50;;;;;;;;;;5027813;28;20500;-51
2024/04/01 12:41:07;;;;;;;10.93;2.65;;;;;;;;;;5027209;28;20132;-54
2024/04/01 12:43:34;;;;;;;10.13;2.78;;;;;;;;;;5028237;28;20029;-49
2024/04/01 12:46:00;;;;;;;8.93;2.95;;;;;;;;;;5040133;28;20037;-49
2024/04/01 12:48:26;;;;;;;15.20;2.97;;;;;;;;;;5028583;28;20033;-50
2024/04/01 12:50:53;;;;;;;5.85;2.10;;;;;;;;;;5028529;28;20124;-47
2024/04/01 12:53:25;;;;;;;9.95;2.58;;;;;;;;;;5028506;28;20037;-46
2024/04/01 12:55:55;;;;;;;7.57;2.78;;;;;;;;;;5027739;28;20151;-51
2024/04/01 12:58:39;;;;;;;13.25;3.20;;;;;;;;;;5028224;28;20676;-50
2024/04/01 13:01:11;;;;;;;15.38;3.50;;;;;;;;;;5010603;28;20052;-48
2024/04/01 13:03:50;;;;;;;11.27;3.03;;;;;;;;;;5026230;28;20030;-50
2024/04/01 13:06:31;;;;;;;11.20;2.70;;;;;;;;;;5009310;28;20811;-49
2024/04/01 13:09:09;;;;;;;7.68;2.45;;;;;;;;;;5027694;28;20030;-47
2024/04/01 13:11:41;;;;;;;10.07;2.80;;;;;;;;;;5026147;28;20037;-48
2024/04/01 13:14:33;;;;;;;9.88;2.95;;;;;;;;;;5026038;28;20044;-50
2024/04/01 13:17:05;;;;;;;10.68;2.80;;;;;;;;;;5024718;28;20551;-49
2024/04/01 13:19:38;;;;;;;17.90;3.38;;;;;;;;;;5027516;28;20124;-48
2024/04/01 13:22:24;;;;;;;15.73;3.28;;;;;;;;;;5019044;28;20038;-51
2024/04/01 13:25:16;;;;;;;9.90;3.67;;;;;;;;;;5020929;28;20267;-57
2024/04/01 13:27:48;;;;;;;15.10;3.22;;;;;;;;;;4995847;28;20572;-50
2024/04/01 13:30:42;;;;;;;8.82;3.05;;;;;;;;;;5026206;28;20393;-49
2024/04/01 13:33:12;;;;;;;13.15;3.63;;;;;;;;;;5027891;28;20814;-52
2024/04/01 13:35:47;;;;;;;14.25;3.45;;;;;;;;;;5026342;28;20132;-50
2024/04/01 13:38:22;;;;;;;15.73;3.63;;;;;;;;;;5015145;28;20022;-52
2024/04/01 13:40:48;;;;;;;8.43;2.78;;;;;;;;;;5007786;28;20037;-51
2024/04/01 13:43:14;;;;;;;6.93;2.80;;;;;;;;;;5023873;28;20075;-53
2024/04/01 13:45:54;;;;;;;15.60;4.00;;;;;;;;;;5042237;28;20512;-47
2024/04/01 13:48:20;;;;;;;17.08;3.65;;;;;;;;;;5027123;28;20529;-47
2024/04/01 13:50:49;;;;;;;11.00;3.05;;;;;;;;;;5027060;28;20045;-53
2024/04/01 13:53:14;;;;;;;;;;;;;;;;;;5012524;28;20042;-51
2024/04/01 13:55:49;;;;;;;9.48;2.75;;;;;;;;;;5007133;28;19928;-53
2024/04/01 13:58:34;;;;;;;14.27;3.58;;;;;;;;;;5030254;28;20033;-49
2024/04/01 14:01:04;;;;;;;13.07;3.60;;;;;;;;;;5027171;28;20637;-51
2024/04/01 14:03:49;;;;;;;13.50;3.13;;;;;;;;;;5005389;28;20030;-54
2024/04/01 14:06:27;;;;;;;13.75;3.85;;;;;;;;;;5006983;28;20046;-53
2024/04/01 14:08:54;;;;;;;11.98;3.70;;;;;;;;;;5007176;28;20040;-51
2024/04/01 14:11:39;;;;;;;17.38;4.43;;;;;;;;;;5007174;28;20045;-48
2024/04/01 14:14:25;;;;;;;16.02;3.97;;;;;;;;;;5020356;28;20527;-51
2024/04/01 14:17:11;;;;;;;16.55;3.50;;;;;;;;;;5020624;28;20511;-53
2024/04/01 14:19:45;;;;;;;17.75;3.13;;;;;;;;;;5023828;28;20037;-47
2024/04/01 14:22:11;;;;;;;15.93;4.28;;;;;;;;;;5026590;28;20045;-52
2024/04/01 14:24:37;;;;;;;13.77;3.45;;;;;;;;;;5026062;28;20033;-49
2024/04/01 14:27:03;;;;;;;17.27;3.85;;;;;;;;;;5025402;28;20034;-52
2024/04/01 14:29:29;;;;;;;16.23;4.35;;;;;;;;;;5042379;28;20116;-49
2024/04/01 14:31:55;;;;;;;22.17;5.88;;;;;;;;;;5026576;28;20211;-48
2024/04/01 14:34:21;;;;;;;17.23;3.65;;;;;;;;;;5026198;28;20056;-51
2024/04/01 14:36:47;;;;;;;10.57;3.50;;;;;;;;;;5025034;28;20037;-51